createdAt,value
2023-02-18T00:01:39.506Z,12.32
2023-02-18T00:04:07.691Z,12.38
2023-02-18T00:06:36.704Z,12.44
2023-02-18T00:09:05.438Z,12.43
2023-02-18T00:11:35.754Z,12.41
2023-02-18T00:14:08.508Z,12.34
2023-02-18T00:16:36.076Z,12.31
2023-02-18T00:19:09.529Z,12.42
2023-02-18T00:21:37.562Z,12.43
2023-02-18T00:24:06.832Z,12.35
2023-02-18T00:26:35.261Z,12.38
2023-02-18T00:29:03.752Z,12.47
2023-02-18T00:31:37.357Z,12.50
2023-02-18T00:34:06.232Z,12.48
2023-02-18T00:36:35.386Z,12.54
2023-02-18T00:39:07.795Z,12.59
2023-02-18T00:41:36.174Z,12.52
2023-02-18T00:44:05.407Z,12.47
2023-02-18T00:46:34.822Z,12.40
2023-02-18T00:49:04.838Z,12.40
2023-02-18T00:51:33.423Z,12.53
2023-02-18T00:54:01.402Z,12.48
2023-02-18T00:56:29.153Z,12.51
2023-02-18T00:58:57.198Z,12.49
2023-02-18T01:01:25.083Z,12.48
2023-02-18T01:03:53.028Z,12.48
2023-02-18T01:06:22.335Z,12.41
2023-02-18T01:08:50.643Z,12.38
2023-02-18T01:11:18.528Z,12.37
2023-02-18T01:13:47.770Z,12.30
2023-02-18T01:16:15.726Z,12.34
2023-02-18T01:18:43.750Z,12.43
2023-02-18T01:21:11.869Z,12.49
2023-02-18T01:23:41.739Z,12.43
2023-02-18T01:26:10.893Z,12.47
2023-02-18T01:28:41.802Z,12.43
2023-02-18T01:31:12.780Z,12.47
2023-02-18T01:33:41.832Z,12.48
2023-02-18T01:36:11.213Z,12.53
2023-02-18T01:38:39.899Z,12.58
2023-02-18T01:41:08.198Z,12.69
2023-02-18T01:43:38.113Z,12.72
2023-02-18T01:46:05.965Z,12.82
2023-02-18T01:49:03.476Z,12.86
2023-02-18T01:51:46.614Z,12.81
2023-02-18T01:54:39.911Z,12.84
2023-02-18T01:57:15.472Z,12.83
2023-02-18T02:00:08.622Z,12.85
2023-02-18T02:02:46.098Z,12.84
2023-02-18T02:05:15.095Z,12.82
2023-02-18T02:07:44.820Z,12.85
2023-02-18T02:10:15.735Z,12.83
2023-02-18T02:13:20.478Z,12.83
2023-02-18T02:16:11.106Z,12.83
2023-02-18T02:18:45.261Z,12.77
2023-02-18T02:21:31.833Z,12.80
2023-02-18T02:24:10.965Z,12.79
2023-02-18T02:27:08.611Z,12.77
2023-02-18T02:30:23.668Z,12.73
2023-02-18T02:33:40.390Z,12.72
2023-02-18T02:36:28.601Z,12.71
2023-02-18T02:39:38.002Z,12.68
2023-02-18T02:42:25.459Z,12.70
2023-02-18T02:45:07.042Z,12.70
2023-02-18T02:47:49.454Z,12.78
2023-02-18T02:51:08.008Z,12.79
2023-02-18T02:53:40.205Z,12.72
2023-02-18T02:56:24.952Z,12.76
2023-02-18T02:59:07.874Z,12.78
2023-02-18T03:02:11.055Z,12.77
2023-02-18T03:04:59.529Z,12.78
2023-02-18T03:07:57.893Z,12.79
2023-02-18T03:11:02.880Z,12.75
2023-02-18T03:14:12.834Z,12.81
2023-02-18T03:16:50.287Z,12.83
2023-02-18T03:19:38.274Z,12.85
2023-02-18T03:22:21.911Z,12.82
2023-02-18T03:24:57.002Z,12.87
2023-02-18T03:27:37.319Z,12.85
2023-02-18T03:30:28.868Z,12.88
2023-02-18T03:33:04.101Z,12.87
2023-02-18T03:35:32.774Z,12.88
2023-02-18T03:38:19.209Z,12.94
2023-02-18T03:40:47.753Z,12.97
2023-02-18T03:43:15.819Z,12.97
2023-02-18T03:45:43.759Z,12.90
2023-02-18T03:48:30.428Z,13.00
2023-02-18T03:50:58.422Z,13.08
2023-02-18T03:53:26.034Z,13.06
2023-02-18T03:55:53.838Z,13.03
2023-02-18T03:58:21.400Z,13.02
2023-02-18T04:00:49.277Z,12.96
2023-02-18T04:03:16.923Z,13.03
2023-02-18T04:05:44.853Z,13.04
2023-02-18T04:08:12.389Z,13.02
2023-02-18T04:10:40.217Z,13.12
2023-02-18T04:13:07.682Z,13.06
2023-02-18T04:15:35.723Z,13.12
2023-02-18T04:18:03.584Z,13.12
2023-02-18T04:20:31.991Z,13.03
2023-02-18T04:22:59.506Z,13.01
2023-02-18T04:25:27.617Z,13.02
2023-02-18T04:27:55.155Z,13.07
2023-02-18T04:30:23.139Z,13.05
2023-02-18T04:32:50.927Z,13.02
2023-02-18T04:35:19.108Z,12.97
2023-02-18T04:37:46.659Z,12.89
2023-02-18T04:40:15.156Z,12.90
2023-02-18T04:42:42.642Z,12.96
2023-02-18T04:45:10.597Z,12.93
2023-02-18T04:47:38.190Z,12.92
2023-02-18T04:50:07.072Z,12.93
2023-02-18T04:52:34.682Z,12.88
2023-02-18T04:55:02.522Z,12.84
2023-02-18T04:57:30.008Z,12.82
2023-02-18T04:59:57.833Z,12.87
2023-02-18T05:02:25.615Z,12.92
2023-02-18T05:04:53.488Z,12.95
2023-02-18T05:07:21.097Z,13.02
2023-02-18T05:09:49.021Z,12.96
2023-02-18T05:12:16.617Z,12.96
2023-02-18T05:14:44.544Z,13.00
2023-02-18T05:17:12.098Z,12.96
2023-02-18T05:19:39.926Z,12.91
2023-02-18T05:22:07.513Z,12.81
2023-02-18T05:24:35.313Z,12.72
2023-02-18T05:27:02.814Z,12.59
2023-02-18T05:29:30.633Z,12.43
2023-02-18T05:31:58.137Z,12.40
2023-02-18T05:34:26.266Z,12.31
2023-02-18T05:36:53.700Z,12.23
2023-02-18T05:39:21.516Z,12.14
2023-02-18T05:41:48.999Z,12.05
2023-02-18T05:44:32.568Z,11.97
2023-02-18T05:47:08.771Z,11.88
2023-02-18T05:49:38.609Z,11.79
2023-02-18T05:52:06.880Z,11.73
2023-02-18T05:54:36.076Z,11.69
2023-02-18T05:57:04.071Z,11.69
2023-02-18T05:59:32.399Z,11.70
2023-02-18T06:02:00.841Z,11.72
2023-02-18T06:04:29.088Z,11.69
2023-02-18T06:06:56.928Z,11.69
2023-02-18T06:09:24.995Z,11.72
2023-02-18T06:11:52.548Z,11.77
2023-02-18T06:14:21.099Z,11.69
2023-02-18T06:16:48.742Z,11.64
2023-02-18T06:19:16.692Z,11.56
2023-02-18T06:21:44.484Z,11.55
2023-02-18T06:24:12.365Z,11.55
2023-02-18T06:26:39.906Z,11.54
2023-02-18T06:29:07.860Z,11.60
2023-02-18T06:31:35.585Z,11.60
2023-02-18T06:34:04.049Z,11.56
2023-02-18T06:36:31.876Z,11.53
2023-02-18T06:39:00.025Z,11.62
2023-02-18T06:41:27.550Z,11.52
2023-02-18T06:43:55.479Z,11.53
2023-02-18T06:46:23.283Z,11.58
2023-02-18T06:48:51.547Z,11.66
2023-02-18T06:51:19.648Z,11.66
2023-02-18T06:53:47.596Z,11.72
2023-02-18T06:56:15.167Z,11.71
2023-02-18T06:58:43.229Z,11.72
2023-02-18T07:01:10.852Z,11.76
2023-02-18T07:03:39.004Z,11.81
2023-02-18T07:06:07.392Z,11.90
2023-02-18T07:08:37.677Z,11.95
2023-02-18T07:11:05.429Z,11.98
2023-02-18T07:13:33.293Z,11.89
2023-02-18T07:16:01.024Z,11.90
2023-02-18T07:18:28.900Z,11.92
2023-02-18T07:20:56.552Z,11.83
2023-02-18T07:23:24.447Z,11.77
2023-02-18T07:25:52.004Z,11.82
2023-02-18T07:28:19.883Z,11.85
2023-02-18T07:30:47.644Z,11.93
2023-02-18T07:33:15.648Z,11.91
2023-02-18T07:35:43.418Z,12.00
2023-02-18T07:38:11.283Z,12.10
2023-02-18T07:40:38.821Z,12.21
2023-02-18T07:43:06.630Z,12.33
2023-02-18T07:45:34.222Z,12.32
2023-02-18T07:48:02.008Z,12.39
2023-02-18T07:50:35.117Z,12.46
2023-02-18T07:53:07.253Z,12.49
2023-02-18T07:55:50.065Z,12.40
2023-02-18T07:58:27.781Z,12.35
2023-02-18T08:00:56.288Z,12.44
2023-02-18T08:03:28.394Z,12.44
2023-02-18T08:05:57.791Z,12.52
2023-02-18T08:08:29.362Z,12.60
2023-02-18T08:11:10.046Z,12.61
2023-02-18T08:13:41.912Z,12.67
2023-02-18T08:16:10.649Z,12.73
2023-02-18T08:18:38.753Z,12.84
2023-02-18T08:21:06.411Z,12.82
2023-02-18T08:23:34.556Z,12.86
2023-02-18T08:26:02.089Z,12.66
2023-02-18T08:28:30.347Z,12.68
2023-02-18T08:30:58.855Z,12.79
2023-02-18T08:33:26.850Z,12.81
2023-02-18T08:35:55.867Z,12.75
2023-02-18T08:38:24.847Z,12.68
2023-02-18T08:41:02.230Z,12.63
2023-02-18T08:43:30.251Z,12.60
2023-02-18T08:45:59.217Z,12.66
2023-02-18T08:48:28.940Z,12.73
2023-02-18T08:50:57.016Z,12.90
2023-02-18T08:53:25.054Z,12.98
2023-02-18T08:55:52.868Z,12.96
2023-02-18T08:58:20.848Z,12.99
2023-02-18T09:00:48.343Z,13.02
2023-02-18T09:03:17.101Z,13.03
2023-02-18T09:06:03.767Z,13.14
2023-02-18T09:08:33.763Z,13.04
2023-02-18T09:11:04.909Z,13.02
2023-02-18T09:13:34.280Z,12.99
2023-02-18T09:16:09.585Z,13.04
2023-02-18T09:18:37.901Z,13.11
2023-02-18T09:21:08.453Z,13.09
2023-02-18T09:23:36.728Z,13.13
2023-02-18T09:26:10.661Z,13.18
2023-02-18T09:28:38.628Z,13.26
2023-02-18T09:31:17.140Z,13.26
2023-02-18T09:33:55.485Z,13.18
2023-02-18T09:36:23.600Z,13.15
2023-02-18T09:38:51.612Z,13.18
2023-02-18T09:41:29.678Z,13.14
2023-02-18T09:44:27.527Z,13.24
2023-02-18T09:47:06.728Z,13.47
2023-02-18T09:49:40.330Z,13.49
2023-02-18T09:52:23.820Z,13.66
2023-02-18T09:54:52.409Z,13.77
2023-02-18T09:57:26.932Z,13.94
2023-02-18T10:00:05.242Z,14.02
2023-02-18T10:02:45.507Z,14.12
2023-02-18T10:05:15.948Z,14.22
2023-02-18T10:07:44.940Z,14.24
2023-02-18T10:10:43.458Z,14.15
2023-02-18T10:13:20.995Z,14.19
2023-02-18T10:15:50.416Z,14.29
2023-02-18T10:18:31.741Z,14.33
2023-02-18T10:21:21.111Z,14.38
2023-02-18T10:24:32.576Z,14.51
2023-02-18T10:27:03.906Z,14.56
2023-02-18T10:29:32.401Z,14.69
2023-02-18T10:32:35.314Z,14.80
2023-02-18T10:35:24.866Z,14.85
2023-02-18T10:37:58.040Z,14.87
2023-02-18T10:41:19.388Z,14.82
2023-02-18T10:44:19.051Z,14.89
2023-02-18T10:47:35.819Z,14.96
2023-02-18T10:50:23.680Z,14.94
2023-02-18T10:52:55.280Z,15.08
2023-02-18T10:55:38.146Z,15.10
2023-02-18T10:58:37.717Z,15.11
2023-02-18T11:01:13.472Z,15.00
2023-02-18T11:03:50.031Z,15.06
2023-02-18T11:06:26.613Z,15.22
2023-02-18T11:08:56.797Z,15.34
2023-02-18T11:11:40.122Z,15.44
2023-02-18T11:14:13.766Z,15.39
2023-02-18T11:16:45.947Z,15.37
2023-02-18T11:19:34.155Z,15.38
2023-02-18T11:22:23.585Z,15.37
2023-02-18T11:25:04.426Z,15.37
2023-02-18T11:27:46.335Z,15.28
2023-02-18T11:30:33.265Z,15.24
2023-02-18T11:33:15.196Z,15.37
2023-02-18T11:35:51.963Z,15.47
2023-02-18T11:38:46.360Z,15.50
2023-02-18T11:41:19.042Z,15.48
2023-02-18T11:43:55.974Z,15.45
2023-02-18T11:46:27.575Z,15.49
2023-02-18T11:48:56.083Z,15.57
2023-02-18T11:51:36.724Z,15.60
2023-02-18T11:54:24.777Z,15.71
2023-02-18T11:57:06.986Z,15.78
2023-02-18T11:59:38.547Z,15.80
2023-02-18T12:02:12.209Z,15.79
2023-02-18T12:04:58.949Z,15.77
2023-02-18T12:07:43.358Z,15.81
2023-02-18T12:10:27.854Z,15.77
2023-02-18T12:13:18.213Z,15.54
2023-02-18T12:16:04.428Z,15.49
2023-02-18T12:19:08.953Z,15.50
2023-02-18T12:22:26.805Z,15.50
2023-02-18T12:25:46.474Z,15.48
2023-02-18T12:28:50.648Z,15.54
2023-02-18T12:31:30.621Z,15.51
2023-02-18T12:34:03.834Z,15.57
2023-02-18T12:36:42.588Z,15.64
2023-02-18T12:39:31.635Z,15.80
2023-02-18T12:42:16.903Z,15.91
2023-02-18T12:45:09.079Z,15.97
2023-02-18T12:48:37.457Z,16.11
2023-02-18T12:51:37.068Z,16.04
2023-02-18T12:55:02.197Z,16.20
2023-02-18T12:57:49.243Z,16.36
2023-02-18T13:00:53.028Z,16.43
2023-02-18T13:03:53.062Z,16.51
2023-02-18T13:06:39.645Z,16.72
2023-02-18T13:09:46.757Z,16.81
2023-02-18T13:12:45.900Z,16.79
2023-02-18T13:15:44.263Z,16.76
2023-02-18T13:18:29.096Z,16.88
2023-02-18T13:21:07.809Z,17.13
2023-02-18T13:23:46.261Z,17.50
2023-02-18T13:26:17.853Z,17.82
2023-02-18T13:29:10.020Z,18.05
2023-02-18T13:32:13.544Z,18.18
2023-02-18T13:35:13.613Z,17.96
2023-02-18T13:38:20.282Z,17.92
2023-02-18T13:40:48.471Z,18.00
2023-02-18T13:43:31.338Z,18.01
2023-02-18T13:46:23.523Z,18.16
2023-02-18T13:49:03.355Z,18.41
2023-02-18T13:51:45.403Z,18.56
2023-02-18T13:54:13.274Z,18.78
2023-02-18T13:57:24.097Z,18.79
2023-02-18T13:59:58.234Z,18.81
2023-02-18T14:02:28.832Z,18.87
2023-02-18T14:05:22.552Z,18.82
2023-02-18T14:08:12.338Z,18.62
2023-02-18T14:10:40.484Z,18.38
2023-02-18T14:13:50.700Z,18.26
2023-02-18T14:16:20.174Z,18.21
2023-02-18T14:18:47.638Z,18.20
2023-02-18T14:21:15.325Z,18.22
2023-02-18T14:24:07.357Z,18.33
2023-02-18T14:26:45.711Z,18.33
2023-02-18T14:29:27.395Z,18.46
2023-02-18T14:32:12.144Z,18.54
2023-02-18T14:35:07.166Z,18.69
2023-02-18T14:37:49.855Z,18.82
2023-02-18T14:40:39.520Z,18.83
2023-02-18T14:43:54.863Z,18.76
2023-02-18T14:46:51.369Z,18.59
2023-02-18T14:49:41.343Z,18.39
2023-02-18T14:52:23.808Z,18.29
2023-02-18T14:54:52.254Z,18.25
2023-02-18T14:57:29.023Z,18.20
2023-02-18T15:00:00.751Z,18.18
2023-02-18T15:02:32.790Z,18.14
2023-02-18T15:05:20.689Z,18.00
2023-02-18T15:08:11.278Z,17.84
2023-02-18T15:10:45.171Z,17.77
2023-02-18T15:13:44.356Z,17.68
2023-02-18T15:16:34.343Z,17.64
2023-02-18T15:19:13.602Z,17.68
2023-02-18T15:21:49.657Z,17.71
2023-02-18T15:24:38.259Z,17.71
2023-02-18T15:27:29.526Z,17.69
2023-02-18T15:30:14.401Z,17.59
2023-02-18T15:32:53.207Z,17.47
2023-02-18T15:35:23.853Z,17.39
2023-02-18T15:37:58.480Z,17.32
2023-02-18T15:40:37.947Z,17.24
2023-02-18T15:43:07.736Z,17.15
2023-02-18T15:45:41.801Z,17.05
2023-02-18T15:48:31.963Z,16.95
2023-02-18T15:51:16.453Z,16.86
2023-02-18T15:53:50.676Z,16.77
2023-02-18T15:56:34.193Z,16.64
2023-02-18T15:59:30.636Z,16.50
2023-02-18T16:02:24.210Z,16.33
2023-02-18T16:04:59.070Z,16.20
2023-02-18T16:07:37.119Z,16.08
2023-02-18T16:10:37.179Z,15.96
2023-02-18T16:13:06.168Z,15.83
2023-02-18T16:15:41.161Z,15.68
2023-02-18T16:18:23.171Z,15.64
2023-02-18T16:21:02.311Z,15.64
2023-02-18T16:23:46.949Z,15.66
2023-02-18T16:26:23.322Z,15.66
2023-02-18T16:28:52.922Z,15.64
2023-02-18T16:31:21.959Z,15.58
2023-02-18T16:33:50.332Z,15.49
2023-02-18T16:36:19.302Z,15.40
2023-02-18T16:38:46.849Z,15.32
2023-02-18T16:41:15.492Z,15.24
2023-02-18T16:43:43.367Z,15.21
2023-02-18T16:46:21.843Z,15.16
2023-02-18T16:48:55.856Z,15.14
2023-02-18T16:51:33.446Z,15.08
2023-02-18T16:54:01.514Z,15.03
2023-02-18T16:56:33.795Z,14.99
2023-02-18T16:59:01.231Z,14.92
2023-02-18T17:01:31.424Z,14.83
2023-02-18T17:04:00.565Z,14.71
2023-02-18T17:06:29.359Z,14.64
2023-02-18T17:08:57.220Z,14.58
2023-02-18T17:11:32.250Z,14.59
2023-02-18T17:14:00.667Z,14.64
2023-02-18T17:16:28.633Z,14.69
2023-02-18T17:18:56.245Z,14.74
2023-02-18T17:21:25.571Z,14.81
2023-02-18T17:23:53.139Z,14.83
2023-02-18T17:26:27.908Z,14.84
2023-02-18T17:28:57.770Z,14.85
2023-02-18T17:31:35.262Z,14.85
2023-02-18T17:34:08.382Z,14.84
2023-02-18T17:36:36.482Z,14.85
2023-02-18T17:39:12.599Z,14.84
2023-02-18T17:41:40.525Z,14.87
2023-02-18T17:44:20.368Z,14.84
2023-02-18T17:46:52.556Z,14.81
2023-02-18T17:49:22.382Z,14.80
2023-02-18T17:51:50.246Z,14.78
2023-02-18T17:54:20.371Z,14.80
2023-02-18T17:56:48.183Z,14.81
2023-02-18T17:59:15.989Z,14.83
2023-02-18T18:01:44.792Z,14.84
2023-02-18T18:04:18.767Z,14.86
2023-02-18T18:06:48.134Z,14.82
2023-02-18T18:09:15.656Z,14.80
2023-02-18T18:11:43.686Z,14.78
2023-02-18T18:14:14.982Z,14.77
2023-02-18T18:16:43.625Z,14.81
2023-02-18T18:19:11.222Z,14.80
2023-02-18T18:21:39.152Z,14.79
2023-02-18T18:24:07.090Z,14.80
2023-02-18T18:26:34.956Z,14.77
2023-02-18T18:29:02.468Z,14.77
2023-02-18T18:31:31.231Z,14.80
2023-02-18T18:34:01.102Z,14.80
2023-02-18T18:36:28.913Z,14.81
2023-02-18T18:38:56.346Z,14.80
2023-02-18T18:41:24.145Z,14.70
2023-02-18T18:43:51.656Z,14.70
2023-02-18T18:46:19.615Z,14.66
2023-02-18T18:48:47.121Z,14.64
2023-02-18T18:51:18.276Z,14.61
2023-02-18T18:53:45.856Z,14.59
2023-02-18T18:56:16.734Z,14.62
2023-02-18T18:58:44.340Z,14.58
2023-02-18T19:01:19.182Z,14.60
2023-02-18T19:03:47.652Z,14.57
2023-02-18T19:06:17.295Z,14.56
2023-02-18T19:08:46.819Z,14.58
2023-02-18T19:11:16.322Z,14.57
2023-02-18T19:13:46.004Z,14.54
2023-02-18T19:17:04.441Z,14.50
2023-02-18T19:19:34.513Z,14.50
2023-02-18T19:22:02.461Z,14.48
2023-02-18T19:24:31.584Z,14.52
2023-02-18T19:27:00.530Z,14.51
2023-02-18T19:29:28.480Z,14.52
2023-02-18T19:31:57.510Z,14.48
2023-02-18T19:34:27.800Z,14.50
2023-02-18T19:36:58.785Z,14.43
2023-02-18T19:39:30.439Z,14.46
2023-02-18T19:42:01.754Z,14.52
2023-02-18T19:44:35.038Z,14.48
2023-02-18T19:47:03.062Z,14.49
2023-02-18T19:49:30.674Z,14.48
2023-02-18T19:52:04.160Z,14.51
2023-02-18T19:54:34.323Z,14.43
2023-02-18T19:57:05.216Z,14.41
2023-02-18T19:59:32.960Z,14.41
2023-02-18T20:02:00.864Z,14.42
2023-02-18T20:04:28.711Z,14.40
2023-02-18T20:06:56.919Z,14.42
2023-02-18T20:09:24.558Z,14.41
2023-02-18T20:11:52.949Z,14.38
2023-02-18T20:14:21.453Z,14.35
2023-02-18T20:16:49.963Z,14.33
2023-02-18T20:19:17.894Z,14.34
2023-02-18T20:21:45.850Z,14.34
2023-02-18T20:24:13.819Z,14.33
2023-02-18T20:26:41.923Z,14.34
2023-02-18T20:29:09.538Z,14.38
2023-02-18T20:31:37.908Z,14.39
2023-02-18T20:34:05.666Z,14.36
2023-02-18T20:36:33.673Z,14.32
2023-02-18T20:39:15.372Z,14.33
2023-02-18T20:41:45.955Z,14.33
2023-02-18T20:44:16.006Z,14.29
2023-02-18T20:46:45.254Z,14.26
2023-02-18T20:49:16.454Z,14.27
2023-02-18T20:51:44.826Z,14.29
2023-02-18T20:54:16.132Z,14.26
2023-02-18T20:56:44.333Z,14.26
2023-02-18T20:59:14.293Z,14.20
2023-02-18T21:01:43.916Z,14.17
2023-02-18T21:04:13.641Z,14.25
2023-02-18T21:06:41.814Z,14.23
2023-02-18T21:09:10.058Z,14.21
2023-02-18T21:11:37.926Z,14.22
2023-02-18T21:14:05.628Z,14.20
2023-02-18T21:16:38.661Z,14.20
2023-02-18T21:19:09.418Z,14.19
2023-02-18T21:21:37.292Z,14.15
2023-02-18T21:24:05.312Z,14.17
2023-02-18T21:26:33.477Z,14.18
2023-02-18T21:29:05.692Z,14.15
2023-02-18T21:31:37.783Z,14.09
2023-02-18T21:34:07.969Z,13.99
2023-02-18T21:36:35.741Z,13.91
2023-02-18T21:39:07.433Z,13.78
2023-02-18T21:41:38.532Z,13.72
2023-02-18T21:44:07.882Z,13.65
2023-02-18T21:46:36.794Z,13.61
2023-02-18T21:49:06.365Z,13.61
2023-02-18T21:52:05.217Z,13.59
2023-02-18T21:54:44.580Z,13.60
2023-02-18T21:57:19.001Z,13.51
2023-02-18T21:59:46.628Z,13.52
2023-02-18T22:02:22.817Z,13.56
2023-02-18T22:04:54.041Z,13.56
2023-02-18T22:07:25.499Z,13.55
2023-02-18T22:09:54.092Z,13.59
2023-02-18T22:12:23.681Z,13.58
2023-02-18T22:14:51.199Z,13.58
2023-02-18T22:17:21.615Z,13.62
2023-02-18T22:19:49.375Z,13.63
2023-02-18T22:22:17.796Z,13.61
2023-02-18T22:24:45.229Z,13.56
2023-02-18T22:27:13.107Z,13.54
2023-02-18T22:29:40.606Z,13.54
2023-02-18T22:32:08.437Z,13.47
2023-02-18T22:34:36.151Z,13.39
2023-02-18T22:37:04.078Z,13.31
2023-02-18T22:39:32.022Z,13.25
2023-02-18T22:41:59.741Z,13.16
2023-02-18T22:44:27.645Z,13.07
2023-02-18T22:46:56.976Z,13.00
2023-02-18T22:49:25.550Z,12.97
2023-02-18T22:51:54.861Z,12.95
2023-02-18T22:54:22.629Z,12.93
2023-02-18T22:56:53.058Z,12.93
2023-02-18T22:59:20.622Z,12.88
2023-02-18T23:01:49.712Z,12.85
2023-02-18T23:04:19.462Z,12.89
2023-02-18T23:06:48.682Z,12.86
2023-02-18T23:09:22.990Z,12.83
2023-02-18T23:11:53.477Z,12.82
2023-02-18T23:14:21.923Z,12.86
2023-02-18T23:17:18.701Z,12.89
2023-02-18T23:19:54.096Z,12.86
2023-02-18T23:22:36.044Z,12.86
2023-02-18T23:25:04.337Z,12.79
2023-02-18T23:27:32.161Z,12.80
2023-02-18T23:29:59.783Z,12.74
2023-02-18T23:32:28.971Z,12.68
2023-02-18T23:34:56.434Z,12.62
2023-02-18T23:37:44.382Z,12.51
2023-02-18T23:40:13.945Z,12.51
2023-02-18T23:42:42.275Z,12.49
2023-02-18T23:45:09.935Z,12.50
2023-02-18T23:47:37.777Z,12.43
2023-02-18T23:50:05.580Z,12.39
2023-02-18T23:52:33.395Z,12.38
2023-02-18T23:55:01.204Z,12.38
2023-02-18T23:57:32.855Z,12.42
